Time;durP1;ratioP1;P1;durP2;ratioP2;P2;SDS_P1;SDS_P2;PMS_P1;PMS_P2;Temp;Humidity;BMP_temperature;BMP_pressure;BME280_temperature;BME280_humidity;BME280_pressure;Samples;Min_cycle;Max_cycle;Signal;HPM_P1;HPM_P2
2022/05/06 00:01:46;;;;;;;8.95;6.28;;;12.60;99.90;;;;;;4964470;28;20046;-74
2022/05/06 00:04:13;;;;;;;8.32;6.10;;;12.60;99.90;;;;;;4996562;28;20347;-74
2022/05/06 00:06:47;;;;;;;7.95;6.75;;;12.60;99.90;;;;;;4984257;28;20030;-74
2022/05/06 00:09:13;;;;;;;10.13;6.47;;;12.60;99.90;;;;;;4995705;28;20034;-74
2022/05/06 00:11:39;;;;;;;7.47;5.78;;;12.70;99.90;;;;;;4989227;28;20049;-74
2022/05/06 00:14:05;;;;;;;7.65;5.85;;;12.70;99.90;;;;;;4970604;28;20049;-74
2022/05/06 00:16:30;;;;;;;7.78;5.95;;;12.70;99.90;;;;;;4978334;28;20036;-75
2022/05/06 00:18:56;;;;;;;8.38;6.22;;;12.70;99.90;;;;;;4992458;28;20042;-74
2022/05/06 00:21:22;;;;;;;8.35;5.88;;;12.70;99.90;;;;;;4966493;28;20073;-74
2022/05/06 00:23:48;;;;;;;9.48;6.13;;;12.70;99.90;;;;;;4969401;28;20034;-74
2022/05/06 00:26:13;;;;;;;9.00;6.10;;;12.70;99.90;;;;;;4985434;28;20050;-75
2022/05/06 00:28:40;;;;;;;8.43;6.55;;;12.60;99.90;;;;;;4976258;28;20106;-75
2022/05/06 00:31:06;;;;;;;9.30;6.38;;;12.50;99.90;;;;;;4996026;28;20065;-75
2022/05/06 00:33:33;;;;;;;8.38;6.22;;;12.40;99.90;;;;;;4985145;28;20062;-75
2022/05/06 00:36:01;;;;;;;9.82;6.43;;;12.30;99.90;;;;;;4991810;28;20075;-75
2022/05/06 00:38:28;;;;;;;9.07;6.00;;;12.30;99.90;;;;;;4992604;28;20042;-75
2022/05/06 00:40:54;;;;;;;8.88;6.10;;;12.30;99.90;;;;;;4964267;28;20035;-75
2022/05/06 00:43:21;;;;;;;7.15;5.72;;;12.30;99.90;;;;;;4987009;28;20034;-74
2022/05/06 00:45:49;;;;;;;9.68;6.47;;;12.40;99.90;;;;;;4984240;28;20034;-75
2022/05/06 00:48:16;;;;;;;8.43;6.22;;;12.50;99.90;;;;;;4986195;28;20042;-74
2022/05/06 00:50:43;;;;;;;8.77;5.90;;;12.50;99.90;;;;;;4994719;28;20026;-74
2022/05/06 00:53:10;;;;;;;8.27;6.40;;;12.60;99.90;;;;;;4975812;28;20474;-74
2022/05/06 00:55:37;;;;;;;7.45;5.55;;;12.60;99.90;;;;;;4950873;28;20026;-75
2022/05/06 00:58:06;;;;;;;9.10;6.28;;;12.60;99.90;;;;;;4988616;28;20078;-75
2022/05/06 01:00:32;;;;;;;7.75;6.20;;;12.60;99.90;;;;;;4986867;28;20034;-74
2022/05/06 01:02:58;;;;;;;7.57;5.90;;;12.60;99.90;;;;;;4987727;28;20034;-74
2022/05/06 01:05:24;;;;;;;7.78;6.20;;;12.50;99.90;;;;;;4986922;28;20457;-74
2022/05/06 01:07:51;;;;;;;8.23;5.82;;;12.40;99.90;;;;;;4989669;28;20487;-74
2022/05/06 01:10:19;;;;;;;9.40;6.47;;;12.40;99.90;;;;;;4988126;28;20038;-74
2022/05/06 01:12:45;;;;;;;10.00;5.67;;;12.40;99.90;;;;;;4991875;28;20026;-75
2022/05/06 01:15:22;;;;;;;11.40;6.97;;;12.50;99.90;;;;;;4970493;28;20027;-75
2022/05/06 01:17:50;;;;;;;7.65;5.78;;;12.60;99.90;;;;;;4970514;28;20086;-74
2022/05/06 01:20:17;;;;;;;6.85;5.78;;;12.60;99.90;;;;;;4977793;28;20609;-74
2022/05/06 01:22:46;;;;;;;9.02;6.10;;;12.60;99.90;;;;;;4968824;28;20121;-74
2022/05/06 01:25:12;;;;;;;7.30;5.82;;;12.60;99.90;;;;;;4983582;28;20037;-75
2022/05/06 01:27:48;;;;;;;8.25;6.15;;;12.60;99.90;;;;;;4988174;28;20137;-75
2022/05/06 01:30:29;;;;;;;8.02;6.05;;;12.60;99.90;;;;;;4983184;28;20038;-75
2022/05/06 01:32:56;;;;;;;8.57;6.13;;;12.60;99.90;;;;;;4968775;28;20042;-75
2022/05/06 01:35:25;;;;;;;8.50;6.23;;;12.60;99.90;;;;;;5000316;28;20088;-75
2022/05/06 01:37:53;;;;;;;8.10;6.22;;;12.60;99.90;;;;;;4972210;28;20113;-74
2022/05/06 01:40:21;;;;;;;7.82;5.55;;;12.60;99.90;;;;;;4995958;28;20122;-74
2022/05/06 01:42:50;;;;;;;7.95;5.63;;;12.60;99.90;;;;;;4992481;28;20475;-75
2022/05/06 01:45:19;;;;;;;6.50;5.20;;;12.50;99.90;;;;;;4988410;28;20030;-75
2022/05/06 01:47:45;;;;;;;;;;;12.50;99.90;;;;;;4992045;28;20068;-74
2022/05/06 01:50:15;;;;;;;8.82;5.93;;;12.50;99.90;;;;;;4988371;28;19920;-75
2022/05/06 01:52:43;;;;;;;6.57;5.60;;;12.50;99.90;;;;;;4973082;28;20046;-75
2022/05/06 01:55:08;;;;;;;9.60;5.70;;;12.50;99.90;;;;;;4988239;28;20074;-74
2022/05/06 01:57:34;;;;;;;8.20;6.05;;;12.50;99.90;;;;;;4970126;28;20116;-75
2022/05/06 02:00:00;;;;;;;8.00;6.15;;;12.40;99.90;;;;;;4969247;28;20046;-74
2022/05/06 02:02:26;;;;;;;10.75;6.88;;;12.50;99.90;;;;;;4988446;28;20142;-75
2022/05/06 02:07:36;;;;;;;8.98;6.15;;;12.60;99.90;;;;;;4987560;28;20086;-75
2022/05/06 02:10:02;;;;;;;6.47;5.38;;;12.60;99.90;;;;;;4974864;28;20038;-75
2022/05/06 02:12:28;;;;;;;10.63;6.85;;;12.60;99.90;;;;;;4992490;28;20755;-76
2022/05/06 02:14:53;;;;;;;9.10;6.15;;;12.60;99.90;;;;;;4989116;28;20030;-75
2022/05/06 02:17:19;;;;;;;7.82;6.30;;;12.50;99.90;;;;;;4986067;28;20030;-75
2022/05/06 02:19:45;;;;;;;7.78;6.15;;;12.50;99.90;;;;;;4988034;28;20361;-75
2022/05/06 02:22:10;;;;;;;8.43;6.30;;;12.50;99.90;;;;;;4987265;28;20037;-74
2022/05/06 02:24:36;;;;;;;8.57;6.63;;;12.50;99.90;;;;;;4987587;28;20078;-74
2022/05/06 02:27:03;;;;;;;9.15;6.93;;;12.40;99.90;;;;;;4990540;28;20038;-75
2022/05/06 02:29:35;;;;;;;9.18;6.60;;;12.50;99.90;;;;;;4963634;28;20466;-75
2022/05/06 02:34:47;;;;;;;7.45;5.72;;;12.50;99.90;;;;;;4988422;28;20044;-75
2022/05/06 02:37:13;;;;;;;8.25;6.13;;;12.50;99.90;;;;;;4987179;28;20594;-75
2022/05/06 02:39:39;;;;;;;8.40;6.05;;;12.50;99.90;;;;;;4988094;28;20170;-75
2022/05/06 02:42:05;;;;;;;9.05;7.10;;;12.50;99.90;;;;;;4989680;28;20026;-75
2022/05/06 02:44:31;;;;;;;8.68;7.00;;;12.40;99.90;;;;;;4991119;28;20101;-75
2022/05/06 02:46:57;;;;;;;12.13;7.60;;;12.30;99.90;;;;;;4990236;28;20536;-74
2022/05/06 02:49:22;;;;;;;11.30;8.15;;;12.20;99.90;;;;;;4985618;28;20061;-74
2022/05/06 02:51:52;;;;;;;13.68;8.00;;;12.10;99.90;;;;;;4988328;28;20038;-75
2022/05/06 02:54:21;;;;;;;14.27;9.70;;;12.00;99.90;;;;;;4968821;28;20030;-74
2022/05/06 02:56:49;;;;;;;14.65;8.93;;;12.00;99.90;;;;;;4968960;28;20038;-75
2022/05/06 02:59:14;;;;;;;13.50;9.52;;;12.00;99.90;;;;;;4989861;28;20034;-75
2022/05/06 03:01:47;;;;;;;15.07;10.43;;;11.90;99.90;;;;;;4981285;28;20060;-75
2022/05/06 03:04:13;;;;;;;14.68;9.77;;;11.80;99.90;;;;;;4985775;28;20034;-75
2022/05/06 03:06:42;;;;;;;14.50;9.82;;;11.80;99.90;;;;;;4991877;28;20030;-74
2022/05/06 03:09:07;;;;;;;15.13;9.15;;;11.80;99.90;;;;;;4985029;28;20065;-75
2022/05/06 03:11:33;;;;;;;15.02;9.73;;;11.70;99.90;;;;;;4970522;28;20733;-75
2022/05/06 03:13:59;;;;;;;15.70;10.48;;;11.70;99.90;;;;;;4970874;28;20038;-75
2022/05/06 03:16:24;;;;;;;14.35;9.48;;;11.70;99.90;;;;;;4982735;28;20043;-75
2022/05/06 03:18:50;;;;;;;13.43;9.70;;;11.70;99.90;;;;;;4970664;28;20044;-74
2022/05/06 03:21:15;;;;;;;15.15;11.02;;;11.60;99.90;;;;;;4994651;28;20697;-74
2022/05/06 03:23:42;;;;;;;15.13;10.30;;;11.50;99.90;;;;;;4986331;28;20038;-75
2022/05/06 03:26:08;;;;;;;13.65;9.40;;;11.60;99.90;;;;;;4982575;28;20434;-74
2022/05/06 03:28:34;;;;;;;16.35;10.10;;;11.60;99.90;;;;;;4989263;28;20030;-75
2022/05/06 03:31:00;;;;;;;15.05;9.98;;;11.60;99.90;;;;;;4971161;28;20042;-74
2022/05/06 03:33:28;;;;;;;14.02;9.48;;;11.60;99.90;;;;;;4993593;28;20405;-75
2022/05/06 03:35:54;;;;;;;;;;;11.60;99.90;;;;;;4991843;28;20034;-74
2022/05/06 03:38:20;;;;;;;13.48;9.50;;;11.60;99.90;;;;;;4995515;28;20329;-75
2022/05/06 03:40:45;;;;;;;13.25;9.35;;;11.60;99.90;;;;;;4992368;28;20080;-75
2022/05/06 03:43:14;;;;;;;13.48;9.40;;;11.60;99.90;;;;;;4995085;28;20030;-75
2022/05/06 03:45:39;;;;;;;16.13;11.25;;;11.60;99.90;;;;;;4990390;28;20034;-73
2022/05/06 03:48:05;;;;;;;15.73;10.25;;;11.60;99.90;;;;;;4991034;28;20509;-74
2022/05/06 03:53:19;;;;;;;18.90;11.52;;;11.50;99.90;;;;;;4984826;28;20045;-76
2022/05/06 03:55:44;;;;;;;16.27;10.98;;;11.50;99.90;;;;;;4990748;28;20046;-74
2022/05/06 03:58:12;;;;;;;17.65;11.55;;;11.50;99.90;;;;;;4988221;28;20501;-74
2022/05/06 04:00:37;;;;;;;19.08;11.90;;;11.40;99.90;;;;;;4987945;28;20037;-75
2022/05/06 04:03:06;;;;;;;19.70;12.15;;;11.40;99.90;;;;;;4974487;28;20039;-74
2022/05/06 04:05:33;;;;;;;18.23;11.90;;;11.30;99.90;;;;;;4974697;28;20207;-75
2022/05/06 04:08:19;;;;;;;19.97;11.80;;;11.30;99.90;;;;;;4975154;28;20034;-74
2022/05/06 04:10:45;;;;;;;18.95;11.75;;;11.30;99.90;;;;;;4955474;28;20038;-74
2022/05/06 04:13:24;;;;;;;;;;;;;;;;;;;;;
2022/05/06 04:15:56;;;;;;;20.08;12.10;;;11.30;99.90;;;;;;4961777;28;20366;-74
2022/05/06 04:18:21;;;;;;;19.63;12.68;;;11.30;99.90;;;;;;4954369;28;20534;-74
2022/05/06 04:23:38;;;;;;;20.58;12.73;;;11.20;99.90;;;;;;4965693;28;20038;-75
2022/05/06 04:26:11;;;;;;;20.45;12.63;;;11.20;99.90;;;;;;4953120;28;20046;-75
2022/05/06 04:28:37;;;;;;;20.80;12.82;;;11.20;99.90;;;;;;4966039;28;20043;-74
2022/05/06 04:31:03;;;;;;;20.98;13.05;;;11.20;99.90;;;;;;4955739;28;20036;-75
2022/05/06 04:33:30;;;;;;;22.95;12.60;;;11.20;99.90;;;;;;4973575;28;20508;-75
2022/05/06 04:36:11;;;;;;;22.63;13.73;;;11.20;99.90;;;;;;4972767;28;20054;-75
2022/05/06 04:38:36;;;;;;;19.80;13.13;;;11.20;99.90;;;;;;4973451;28;20057;-75
2022/05/06 04:41:03;;;;;;;23.77;13.70;;;11.20;99.90;;;;;;4953829;28;20039;-75
2022/05/06 04:43:30;;;;;;;19.95;13.18;;;11.30;99.90;;;;;;4970235;28;20031;-75
2022/05/06 04:45:56;;;;;;;24.40;14.13;;;11.20;99.90;;;;;;4948356;28;20042;-75
2022/05/06 04:48:23;;;;;;;21.35;13.35;;;11.20;99.90;;;;;;4956714;28;20541;-75
2022/05/06 04:50:52;;;;;;;24.50;13.13;;;11.20;99.90;;;;;;4966568;28;20100;-75
2022/05/06 04:53:28;;;;;;;21.27;13.63;;;11.30;99.90;;;;;;4954255;28;20042;-75
2022/05/06 04:55:55;;;;;;;22.67;14.05;;;11.30;99.90;;;;;;4970436;28;20037;-75
2022/05/06 04:58:21;;;;;;;19.23;13.20;;;11.20;99.90;;;;;;4972955;28;20038;-75
2022/05/06 05:00:47;;;;;;;20.88;14.20;;;11.30;99.90;;;;;;4969812;28;20059;-75
2022/05/06 05:03:12;;;;;;;25.25;14.27;;;11.30;99.90;;;;;;4954025;28;20041;-75
2022/05/06 05:05:40;;;;;;;23.02;13.57;;;11.30;99.90;;;;;;4950542;28;20027;-75
2022/05/06 05:08:08;;;;;;;20.27;13.38;;;11.30;99.90;;;;;;4950159;28;20038;-74
2022/05/06 05:10:34;;;;;;;24.33;14.48;;;11.30;99.90;;;;;;4973011;28;20076;-74
2022/05/06 05:13:38;;;;;;;23.98;15.02;;;11.30;99.90;;;;;;4967037;28;20031;-75
2022/05/06 05:16:10;;;;;;;19.45;13.27;;;11.40;99.90;;;;;;4948587;28;20513;-75
2022/05/06 05:18:38;;;;;;;21.10;14.32;;;11.40;99.90;;;;;;4953182;28;20398;-75
2022/05/06 05:21:04;;;;;;;20.57;14.10;;;11.40;99.90;;;;;;4971226;28;20034;-75
2022/05/06 05:23:37;;;;;;;21.15;13.40;;;11.40;99.90;;;;;;4971227;28;20096;-75
2022/05/06 05:26:03;;;;;;;24.83;14.75;;;11.40;99.90;;;;;;4967697;28;20026;-75
2022/05/06 05:28:28;;;;;;;23.15;14.82;;;11.40;99.90;;;;;;4967336;28;20033;-75
2022/05/06 05:30:54;;;;;;;24.00;14.88;;;11.50;99.90;;;;;;4948959;28;20139;-76
2022/05/06 05:33:20;;;;;;;20.42;14.77;;;11.50;99.90;;;;;;4948278;28;20045;-75
2022/05/06 05:35:50;;;;;;;25.35;14.45;;;11.50;99.90;;;;;;4965338;28;20057;-75
2022/05/06 05:38:16;;;;;;;21.65;14.82;;;11.50;99.90;;;;;;4968714;28;20034;-75
2022/05/06 05:40:43;;;;;;;22.83;14.55;;;11.50;99.90;;;;;;4946552;28;20360;-75
2022/05/06 05:48:19;;;;;;;25.50;15.77;;;11.60;99.90;;;;;;4965824;28;20038;-75
2022/05/06 05:48:42;;;;;;;26.73;15.38;;;11.60;99.90;;;;;;4968826;28;20633;-75
2022/05/06 05:51:08;;;;;;;20.45;14.13;;;11.60;99.90;;;;;;4959245;28;20038;-75
2022/05/06 05:53:42;;;;;;;27.05;14.65;;;11.60;99.90;;;;;;4968801;28;20475;-75
2022/05/06 05:56:08;;;;;;;21.58;14.07;;;11.60;99.90;;;;;;4943678;28;20026;-75
2022/05/06 05:58:34;;;;;;;23.83;14.38;;;11.70;99.90;;;;;;4972851;28;20118;-75
2022/05/06 06:01:05;;;;;;;26.60;15.32;;;11.70;99.90;;;;;;4955696;29;20059;-75
2022/05/06 06:03:31;;;;;;;21.83;14.32;;;11.70;99.90;;;;;;4946516;28;20043;-75
2022/05/06 06:05:57;;;;;;;22.00;14.38;;;11.70;99.90;;;;;;4947876;28;20557;-75
2022/05/06 06:08:27;;;;;;;22.95;15.32;;;11.70;99.90;;;;;;4948295;28;20027;-75
2022/05/06 06:11:00;;;;;;;21.13;13.55;;;11.80;99.90;;;;;;4947024;28;20901;-75
2022/05/06 06:13:25;;;;;;;24.30;15.55;;;11.90;99.90;;;;;;4948708;28;20529;-74
2022/05/06 06:15:52;;;;;;;24.13;14.48;;;11.90;99.90;;;;;;4946989;28;20114;-74
2022/05/06 06:18:28;;;;;;;26.60;14.82;;;11.90;99.90;;;;;;4949010;28;20087;-76
2022/05/06 06:20:55;;;;;;;23.92;15.13;;;12.00;99.90;;;;;;4934372;28;20032;-75
2022/05/06 06:23:21;;;;;;;23.20;14.77;;;12.00;99.90;;;;;;4942669;28;20032;-75
2022/05/06 06:25:48;;;;;;;23.08;14.43;;;12.00;99.90;;;;;;4948190;28;20039;-75
2022/05/06 06:28:14;;;;;;;22.15;14.10;;;12.00;99.90;;;;;;4945909;28;20031;-76
2022/05/06 06:30:41;;;;;;;19.65;14.38;;;12.00;99.90;;;;;;4954652;28;20042;-75
2022/05/06 06:33:09;;;;;;;19.50;13.90;;;12.10;99.90;;;;;;4973785;28;20038;-74
2022/05/06 06:35:35;;;;;;;22.80;14.27;;;12.10;99.90;;;;;;4968184;28;20023;-75
2022/05/06 06:38:01;;;;;;;23.88;14.88;;;12.10;99.90;;;;;;4971866;28;20064;-75
2022/05/06 06:40:27;;;;;;;22.80;14.70;;;12.20;99.90;;;;;;4970024;28;20093;-75
2022/05/06 06:42:59;;;;;;;22.25;14.48;;;12.30;99.90;;;;;;4975521;28;20240;-75
2022/05/06 06:45:25;;;;;;;20.85;13.98;;;12.30;99.90;;;;;;4968919;28;20041;-75
2022/05/06 06:47:51;;;;;;;24.85;15.48;;;12.40;99.90;;;;;;4970747;28;20042;-75
2022/05/06 06:50:17;;;;;;;19.50;12.93;;;12.40;99.90;;;;;;4971275;28;20039;-75
2022/05/06 06:52:43;;;;;;;24.02;14.05;;;12.30;99.90;;;;;;4975452;28;20068;-75
2022/05/06 06:55:10;;;;;;;21.92;14.02;;;12.30;99.90;;;;;;4968655;28;20093;-75
2022/05/06 06:57:37;;;;;;;18.15;12.85;;;12.30;99.90;;;;;;4971669;28;20026;-74
2022/05/06 07:00:03;;;;;;;23.45;14.73;;;12.30;99.90;;;;;;4966966;28;20093;-75
2022/05/06 07:02:29;;;;;;;29.48;14.65;;;12.20;99.90;;;;;;4989601;28;20073;-75
2022/05/06 07:04:55;;;;;;;22.33;14.75;;;12.30;99.90;;;;;;4987829;28;20022;-74
2022/05/06 07:12:49;;;;;;;20.58;13.68;;;12.30;99.90;;;;;;4985758;28;20153;-73
2022/05/06 07:15:16;;;;;;;19.58;13.20;;;12.30;99.90;;;;;;4983813;28;20472;-75
2022/05/06 07:17:42;;;;;;;20.38;13.60;;;12.30;99.90;;;;;;4965169;28;20133;-75
2022/05/06 07:20:08;;;;;;;17.30;12.43;;;12.40;99.90;;;;;;4972863;28;20129;-74
2022/05/06 07:22:34;;;;;;;22.77;14.65;;;12.40;99.90;;;;;;4982583;28;20042;-74
2022/05/06 07:25:00;;;;;;;20.20;14.00;;;12.40;99.90;;;;;;4980700;28;20065;-75
2022/05/06 07:27:29;;;;;;;22.00;13.82;;;12.30;99.90;;;;;;4986972;28;20038;-75
2022/05/06 07:30:09;;;;;;;20.67;13.45;;;12.30;99.90;;;;;;4989655;28;20038;-75
2022/05/06 07:32:42;;;;;;;21.27;13.35;;;12.40;99.90;;;;;;4985510;28;20079;-75
2022/05/06 07:35:09;;;;;;;18.63;13.25;;;12.40;99.90;;;;;;4989886;28;20049;-75
2022/05/06 07:37:35;;;;;;;19.75;13.48;;;12.40;99.90;;;;;;4975918;28;20038;-75
2022/05/06 07:40:06;;;;;;;21.42;14.23;;;12.50;99.90;;;;;;4970156;28;20529;-75
2022/05/06 07:42:33;;;;;;;18.85;13.13;;;12.50;99.90;;;;;;4986782;28;20030;-75
2022/05/06 07:44:59;;;;;;;21.85;14.10;;;12.60;99.90;;;;;;4967064;28;20296;-75
2022/05/06 07:47:25;;;;;;;19.20;12.35;;;12.50;99.90;;;;;;4989504;28;20041;-75
2022/05/06 07:49:51;;;;;;;20.80;12.82;;;12.50;99.90;;;;;;4982923;28;20034;-76
2022/05/06 07:52:18;;;;;;;21.63;12.70;;;12.50;99.90;;;;;;4986011;28;20046;-76
2022/05/06 07:54:44;;;;;;;19.42;12.95;;;12.50;99.90;;;;;;4984417;28;20045;-75
2022/05/06 07:57:09;;;;;;;20.30;13.48;;;12.60;99.90;;;;;;4980739;28;20031;-75
2022/05/06 07:59:35;;;;;;;16.98;12.55;;;12.70;99.90;;;;;;4981248;28;20042;-76
2022/05/06 08:04:49;;;;;;;17.85;12.48;;;12.80;99.90;;;;;;4981598;28;20279;-75
2022/05/06 08:07:16;;;;;;;23.75;13.02;;;12.90;99.90;;;;;;4981753;28;20569;-75
2022/05/06 08:09:42;;;;;;;18.25;12.60;;;12.90;99.90;;;;;;4982697;28;20043;-75
2022/05/06 08:12:09;;;;;;;21.67;12.32;;;12.90;99.90;;;;;;4983276;28;20038;-75
2022/05/06 08:14:35;;;;;;;18.35;12.05;;;12.90;99.90;;;;;;4985233;28;20034;-76
2022/05/06 08:17:02;;;;;;;19.67;13.32;;;12.80;99.90;;;;;;4983522;28;20046;-73
2022/05/06 08:19:28;;;;;;;20.50;14.13;;;12.80;99.90;;;;;;4983020;28;20073;-74
2022/05/06 08:21:54;;;;;;;20.10;13.45;;;12.80;99.90;;;;;;4982255;28;20035;-74
2022/05/06 08:24:21;;;;;;;22.65;13.73;;;12.80;99.90;;;;;;4983993;28;20470;-75
2022/05/06 08:26:47;;;;;;;17.52;12.60;;;12.80;99.90;;;;;;4981696;28;20068;-74
2022/05/06 08:29:13;;;;;;;19.45;13.32;;;12.70;99.90;;;;;;4962527;28;20062;-75
2022/05/06 08:31:39;;;;;;;19.15;13.07;;;12.70;99.90;;;;;;4971116;28;20043;-75
2022/05/06 08:34:10;;;;;;;20.25;13.00;;;12.70;99.90;;;;;;4962523;28;20031;-74
2022/05/06 08:36:37;;;;;;;19.05;13.77;;;12.70;99.90;;;;;;4963897;28;20066;-75
2022/05/06 08:39:04;;;;;;;19.05;12.27;;;12.70;99.90;;;;;;4963058;28;20074;-75
2022/05/06 08:41:30;;;;;;;17.45;12.25;;;12.70;99.90;;;;;;4959765;28;20045;-75
2022/05/06 08:43:57;;;;;;;20.48;12.98;;;12.70;99.90;;;;;;4963042;28;20096;-74
2022/05/06 08:51:59;;;;;;;17.52;12.48;;;12.60;99.90;;;;;;4963891;28;20041;-75
2022/05/06 08:54:26;;;;;;;20.80;12.52;;;12.60;99.90;;;;;;4960597;28;20054;-74
2022/05/06 08:56:54;;;;;;;18.83;13.50;;;12.60;99.90;;;;;;4964565;28;20057;-74
2022/05/06 08:59:21;;;;;;;20.88;12.65;;;12.50;99.90;;;;;;4948500;28;20198;-75
2022/05/06 09:01:47;;;;;;;19.48;13.10;;;12.50;99.90;;;;;;4939024;28;20063;-74
2022/05/06 09:04:13;;;;;;;19.10;12.93;;;12.50;99.90;;;;;;4967814;28;20118;-74
2022/05/06 09:06:38;;;;;;;22.73;14.18;;;12.50;99.90;;;;;;4962885;28;20114;-75
2022/05/06 09:09:04;;;;;;;18.90;12.23;;;12.50;99.90;;;;;;4963005;28;20085;-75
2022/05/06 09:14:17;;;;;;;22.70;13.80;;;12.60;99.90;;;;;;4963161;28;20042;-75
2022/05/06 09:16:44;;;;;;;;;;;12.60;99.90;;;;;;4963251;28;20038;-75
2022/05/06 09:19:21;;;;;;;22.48;13.23;;;12.70;99.90;;;;;;4963848;28;19922;-74
2022/05/06 09:22:11;;;;;;;17.98;12.60;;;12.70;99.90;;;;;;4963724;28;20034;-75
2022/05/06 09:24:38;;;;;;;17.92;12.20;;;12.80;99.90;;;;;;4967526;28;20414;-75
2022/05/06 09:27:05;;;;;;;17.00;11.48;;;12.70;99.90;;;;;;4960479;28;20089;-74
2022/05/06 09:29:34;;;;;;;20.33;12.70;;;12.80;99.90;;;;;;4962408;28;20049;-74
2022/05/06 09:32:13;;;;;;;;;;;12.80;99.90;;;;;;4963641;28;20093;-74
2022/05/06 09:34:40;;;;;;;18.58;11.60;;;12.80;99.90;;;;;;4964355;28;20333;-74
2022/05/06 09:37:06;;;;;;;17.43;12.20;;;12.80;99.90;;;;;;4965623;28;20355;-75
2022/05/06 09:39:32;;;;;;;18.02;12.43;;;12.70;99.90;;;;;;4962383;28;20046;-75
2022/05/06 09:42:05;;;;;;;20.73;12.98;;;12.70;99.90;;;;;;4961556;28;20035;-75
2022/05/06 09:44:33;;;;;;;21.10;12.52;;;12.60;99.90;;;;;;4960514;28;20038;-75
2022/05/06 09:47:11;;;;;;;21.33;13.43;;;12.60;99.90;;;;;;4966738;28;20042;-75
2022/05/06 09:49:38;;;;;;;19.20;12.52;;;12.60;99.90;;;;;;4972392;28;20041;-74
2022/05/06 09:52:09;;;;;;;20.05;12.20;;;12.60;99.90;;;;;;4968003;28;20038;-75
2022/05/06 09:54:35;;;;;;;19.45;12.82;;;12.60;99.90;;;;;;4964207;28;20038;-75
2022/05/06 09:57:06;;;;;;;20.50;12.80;;;12.60;99.90;;;;;;4960805;28;20041;-74
2022/05/06 09:59:32;;;;;;;18.20;12.73;;;12.60;99.90;;;;;;4963314;28;20039;-75
2022/05/06 10:01:58;;;;;;;22.00;12.73;;;12.60;99.90;;;;;;4970642;28;20058;-75
2022/05/06 10:04:24;;;;;;;19.17;12.43;;;12.50;99.90;;;;;;4982198;28;20597;-74
2022/05/06 10:06:50;;;;;;;20.95;13.27;;;12.60;99.90;;;;;;4985085;28;20089;-74
2022/05/06 10:09:21;;;;;;;18.90;11.80;;;12.60;99.90;;;;;;4984278;28;20038;-74
2022/05/06 10:11:51;;;;;;;23.38;13.02;;;12.60;99.90;;;;;;4990907;28;20046;-74
2022/05/06 10:14:18;;;;;;;20.77;12.88;;;12.60;99.90;;;;;;4993495;28;20113;-75
2022/05/06 10:16:44;;;;;;;19.83;12.00;;;12.50;99.90;;;;;;4982536;28;20046;-75
2022/05/06 10:19:39;;;;;;;19.90;11.93;;;12.40;99.90;;;;;;4982567;28;20133;-75
2022/05/06 10:22:05;;;;;;;18.10;12.40;;;12.30;99.90;;;;;;4954367;28;20045;-75
2022/05/06 10:24:41;;;;;;;18.75;12.80;;;12.20;99.90;;;;;;4968718;28;20364;-75
2022/05/06 10:33:14;;;;;;;22.15;13.18;;;12.10;99.90;;;;;;4982835;28;20084;-75
2022/05/06 10:35:53;;;;;;;19.48;12.82;;;12.20;99.90;;;;;;4982673;28;20026;-75
2022/05/06 10:38:21;;;;;;;18.55;12.48;;;12.20;99.90;;;;;;4982253;28;20474;-76
2022/05/06 10:40:53;;;;;;;;;;;12.20;99.90;;;;;;4982817;28;20054;-75
2022/05/06 10:43:46;;;;;;;17.73;11.52;;;12.10;99.90;;;;;;4981170;28;19917;-74
2022/05/06 10:46:34;;;;;;;20.55;11.27;;;12.10;99.90;;;;;;4982544;28;20211;-74
2022/05/06 10:49:35;;;;;;;17.42;11.07;;;12.10;99.90;;;;;;4984845;28;20038;-74
2022/05/06 10:52:16;;;;;;;15.05;10.50;;;12.10;99.90;;;;;;4981404;28;20035;-74
2022/05/06 10:55:00;;;;;;;16.50;10.90;;;12.00;99.90;;;;;;4981470;28;20096;-74
2022/05/06 10:57:31;;;;;;;15.85;9.88;;;12.10;99.90;;;;;;4966790;28;20038;-74
2022/05/06 11:00:00;;;;;;;15.00;9.48;;;12.00;99.90;;;;;;4984349;28;20133;-75
2022/05/06 11:02:32;;;;;;;16.65;10.48;;;12.00;99.90;;;;;;4980903;28;20059;-74
2022/05/06 11:05:03;;;;;;;18.65;11.20;;;12.00;99.90;;;;;;4982266;28;20040;-74
2022/05/06 11:07:31;;;;;;;16.77;9.73;;;12.00;99.90;;;;;;4980978;28;20054;-75
2022/05/06 11:09:57;;;;;;;17.23;10.85;;;12.00;99.90;;;;;;4980864;28;20131;-74
2022/05/06 11:12:43;;;;;;;19.02;10.88;;;12.00;99.90;;;;;;4980205;28;20147;-73
2022/05/06 11:15:15;;;;;;;16.63;10.70;;;12.10;99.90;;;;;;4984429;28;20034;-75
2022/05/06 11:17:42;;;;;;;16.42;9.82;;;12.10;99.90;;;;;;4981210;28;20042;-74
2022/05/06 11:20:23;;;;;;;16.73;10.52;;;12.20;99.90;;;;;;4981882;28;20473;-75
2022/05/06 11:23:03;;;;;;;20.67;11.20;;;12.20;99.90;;;;;;4983463;28;20077;-74
2022/05/06 11:25:33;;;;;;;19.42;10.43;;;12.20;99.90;;;;;;4984020;28;20054;-74
2022/05/06 11:28:02;;;;;;;17.75;10.25;;;12.20;99.90;;;;;;4985620;28;20030;-74
2022/05/06 11:30:29;;;;;;;;;;;12.30;99.90;;;;;;4984257;28;20117;-74
2022/05/06 11:33:03;;;;;;;18.30;10.90;;;12.30;99.90;;;;;;4990627;28;19910;-74
2022/05/06 11:35:32;;;;;;;18.25;10.80;;;12.30;99.90;;;;;;4986354;28;20043;-75
2022/05/06 11:38:00;;;;;;;20.13;11.38;;;12.30;99.90;;;;;;4983228;28;20062;-74
2022/05/06 11:40:36;;;;;;;15.45;10.30;;;12.20;99.90;;;;;;4969175;28;20088;-74
2022/05/06 11:43:20;;;;;;;18.77;10.25;;;12.20;99.90;;;;;;4984201;28;20046;-74
2022/05/06 11:48:44;;;;;;;15.68;9.55;;;12.20;99.90;;;;;;4982897;28;20086;-74
2022/05/06 11:51:26;;;;;;;14.35;8.93;;;12.10;99.90;;;;;;4967255;28;20385;-75
2022/05/06 11:53:53;;;;;;;16.45;10.45;;;12.10;99.90;;;;;;4983283;28;20038;-74
2022/05/06 11:56:24;;;;;;;15.05;9.32;;;12.10;99.90;;;;;;4982719;28;20444;-74
2022/05/06 11:58:52;;;;;;;19.05;10.20;;;12.10;99.90;;;;;;4982713;28;20058;-75
2022/05/06 12:01:28;;;;;;;;;;;12.00;99.90;;;;;;4979891;28;20067;-75
2022/05/06 12:03:58;;;;;;;18.52;10.63;;;12.10;99.90;;;;;;4982901;28;20023;-75
2022/05/06 12:06:27;;;;;;;14.35;9.85;;;12.10;99.90;;;;;;4983635;28;20046;-75
2022/05/06 12:09:17;;;;;;;14.68;9.95;;;12.00;99.90;;;;;;4980002;28;20038;-74
2022/05/06 12:11:44;;;;;;;16.08;10.32;;;12.00;99.90;;;;;;4980727;28;20022;-75
2022/05/06 12:14:18;;;;;;;13.85;9.65;;;12.10;99.90;;;;;;4961926;28;20042;-75
2022/05/06 12:16:57;;;;;;;15.18;10.68;;;12.20;99.90;;;;;;4979140;28;20038;-74
2022/05/06 12:19:34;;;;;;;16.92;10.43;;;12.20;99.90;;;;;;4977220;28;20046;-75
2022/05/06 12:22:23;;;;;;;17.65;10.40;;;12.30;99.90;;;;;;4981939;28;20086;-75
2022/05/06 12:24:52;;;;;;;15.43;9.45;;;12.30;99.90;;;;;;4979967;28;20046;-75
2022/05/06 12:27:24;;;;;;;;;;;12.30;99.90;;;;;;4984690;28;20041;-75
2022/05/06 12:29:49;;;;;;;13.48;8.80;;;12.40;99.90;;;;;;4985863;28;20476;-74
2022/05/06 12:32:15;;;;;;;17.35;10.43;;;12.30;99.90;;;;;;4981020;28;20125;-74
2022/05/06 12:34:41;;;;;;;19.25;10.55;;;12.40;99.90;;;;;;4980811;28;20030;-74
2022/05/06 12:37:14;;;;;;;14.70;9.05;;;12.40;99.90;;;;;;4987244;28;20034;-74
2022/05/06 12:39:44;;;;;;;15.57;9.45;;;12.40;99.90;;;;;;4978706;28;20050;-74
2022/05/06 12:42:18;;;;;;;17.85;9.82;;;12.50;99.90;;;;;;4979000;28;20030;-74
2022/05/06 12:44:45;;;;;;;15.63;9.50;;;12.40;99.90;;;;;;4982018;28;20034;-74
2022/05/06 12:47:13;;;;;;;13.18;8.95;;;12.50;99.90;;;;;;4982269;28;20119;-74
2022/05/06 12:49:41;;;;;;;16.65;9.82;;;12.60;99.90;;;;;;4982257;28;20169;-74
2022/05/06 12:52:08;;;;;;;15.18;9.30;;;12.60;99.90;;;;;;4976601;28;20130;-74
2022/05/06 12:54:35;;;;;;;17.55;9.85;;;12.60;99.90;;;;;;4977823;28;20062;-74
2022/05/06 12:57:03;;;;;;;18.60;10.32;;;12.70;99.90;;;;;;4979345;28;20088;-74
2022/05/06 12:59:29;;;;;;;17.67;10.83;;;12.90;99.90;;;;;;4979264;28;20209;-75
2022/05/06 13:01:55;;;;;;;16.60;10.18;;;12.90;99.90;;;;;;4976172;28;20170;-74
2022/05/06 13:04:21;;;;;;;17.45;10.65;;;13.00;99.90;;;;;;4978571;28;20077;-74
2022/05/06 13:06:47;;;;;;;13.45;9.55;;;13.00;99.90;;;;;;4977978;28;20053;-74
2022/05/06 13:09:13;;;;;;;14.55;9.85;;;13.00;99.90;;;;;;4967802;28;20048;-74
2022/05/06 13:11:39;;;;;;;14.45;9.70;;;13.00;99.90;;;;;;4983383;28;20351;-74
2022/05/06 13:14:06;;;;;;;14.63;10.10;;;12.90;99.90;;;;;;4979187;28;20072;-74
2022/05/06 13:16:34;;;;;;;18.23;10.03;;;13.00;99.90;;;;;;4962806;28;20102;-73
2022/05/06 13:19:01;;;;;;;;;;;13.00;99.90;;;;;;4979621;28;20052;-74
2022/05/06 13:21:26;;;;;;;13.05;8.73;;;13.00;99.90;;;;;;4981539;28;19921;-73
2022/05/06 13:23:52;;;;;;;15.35;9.82;;;13.10;99.90;;;;;;4978286;28;20607;-73